Aviation Digital Data Service (ADDS)

Output produced by METARs form (2129 UTC 20 August 2019)
found at http://www.aviationweather.gov/metar/data/
 
Forecast for: VIAR (AMRITSAR , IN)
Text: TAF VIAR 202000Z 2021/2106 00000KT 3000 BR FEW035
Forecast period: 2100 UTC 20 August 2019 to 0000 UTC 21 August 2019
Forecast type: FROM: standard forecast or significant change
Winds: calm
Visibility: 1.86 miles (2.99 km)
Ceiling: at least 12,000 feet AGL
Clouds: few clouds at 3500 feet AGL
Weather: BR  (mist)
Text: BECMG 2100/2102 2000 BR
Forecast period: 0000 to 0400 UTC 21 August 2019
Forecast type: BECOMING: Conditions expected to become as follows by 0200 UTC 21 August 2019
Winds: calm
Visibility: 1.24 miles (2.00 km)
Ceiling: at least 12,000 feet AGL
Clouds: few clouds at 3500 feet AGL
Weather: BR  (mist)
Text: BECMG 2104/2106 32006KT 4000 HZ SCT035 SCT100
Forecast period: 0400 to 0600 UTC 21 August 2019
Forecast type: BECOMING: Conditions expected to become as follows by 0600 UTC 21 August 2019
Winds: from the NW (320 degrees) at 7 MPH (6 knots; 3.1 m/s)
Visibility: 2.49 miles (4.01 km)
Ceiling: at least 12,000 feet AGL
Clouds: scattered clouds at 3500 feet AGL
scattered clouds at 10000 feet AGL
Weather: HZ  (haze)